Rechercher aéroport 
image banner adimage banner adimage banner ad
image banner ad

N74 - Penns Cave

Situé à Centre Hall, United States

ICAO - N74, IATA -

Données fournies par Airmate  

Information générale

Coordonnées: N40°53'24" W77°36'11"
Élévation : 1245 feet MSL.
Variation magnétique : -10° East
Voir autres Aéroports à Pennsylvania

Données opérationnelles

Special qualification required
Heure actuelle UTC:
Heure actuelle locale:
Météo à : KUNV - University Park ( 21 km )
METAR: KUNV 152153Z 29005KT 10SM SCT040 SCT100 20/13 A2987
TAF: KUNV 152106Z 1521/1618 31007KT P6SM SCT050 BKN100 FM160000 32005KT P6SM SCT100 FM160600 VRB03KT 6SM BR SKC FM161600 33008KT P6SM SKC
Voir NOTAMs / SUP AIP / TFR affectant cet aéroport [VIEW]
Fréquences de communication: [VIEW]

Pistes:

Identifiant RWYQFULongueur (ft)Largeur (ft)SurfaceLDA (ft)
07250940ASPH
25250940ASPH

Coordonnées de l'aéroport

Adresse: Centre Hall United States

Vue satellite de N74